sensor_id;sensor_type;location;lat;lon;timestamp;temperature;humidity
11083;DHT22;5595;50.186;8.468;2023-03-15T00:01:58;2.10;99.90
11083;DHT22;5595;50.186;8.468;2023-03-15T00:04:25;2.10;99.90
11083;DHT22;5595;50.186;8.468;2023-03-15T00:06:52;2.00;99.90
11083;DHT22;5595;50.186;8.468;2023-03-15T00:09:19;2.00;99.90
11083;DHT22;5595;50.186;8.468;2023-03-15T00:11:48;2.10;99.90
11083;DHT22;5595;50.186;8.468;2023-03-15T00:14:15;2.10;99.90
11083;DHT22;5595;50.186;8.468;2023-03-15T00:16:44;1.90;99.90
11083;DHT22;5595;50.186;8.468;2023-03-15T00:19:11;2.00;99.90
11083;DHT22;5595;50.186;8.468;2023-03-15T00:21:38;2.10;99.90
11083;DHT22;5595;50.186;8.468;2023-03-15T00:24:07;1.90;99.90
11083;DHT22;5595;50.186;8.468;2023-03-15T00:26:34;1.90;99.90
11083;DHT22;5595;50.186;8.468;2023-03-15T00:29:01;1.90;99.90
11083;DHT22;5595;50.186;8.468;2023-03-15T00:31:28;1.80;99.90
11083;DHT22;5595;50.186;8.468;2023-03-15T00:33:57;1.80;99.90
11083;DHT22;5595;50.186;8.468;2023-03-15T00:36:24;1.80;99.90
11083;DHT22;5595;50.186;8.468;2023-03-15T00:38:53;1.80;99.90
11083;DHT22;5595;50.186;8.468;2023-03-15T00:41:21;1.80;99.90
11083;DHT22;5595;50.186;8.468;2023-03-15T00:43:49;1.80;99.90
11083;DHT22;5595;50.186;8.468;2023-03-15T00:46:17;1.80;99.90
11083;DHT22;5595;50.186;8.468;2023-03-15T00:48:47;1.70;99.90
11083;DHT22;5595;50.186;8.468;2023-03-15T00:51:17;1.70;99.90
11083;DHT22;5595;50.186;8.468;2023-03-15T00:53:46;1.70;99.90
11083;DHT22;5595;50.186;8.468;2023-03-15T00:56:16;1.70;99.90
11083;DHT22;5595;50.186;8.468;2023-03-15T00:58:43;1.80;99.90
11083;DHT22;5595;50.186;8.468;2023-03-15T01:01:13;2.00;99.90
11083;DHT22;5595;50.186;8.468;2023-03-15T01:03:41;1.70;99.90
11083;DHT22;5595;50.186;8.468;2023-03-15T01:06:09;1.70;99.90
11083;DHT22;5595;50.186;8.468;2023-03-15T01:08:38;1.70;99.90
11083;DHT22;5595;50.186;8.468;2023-03-15T01:11:07;1.40;99.90
11083;DHT22;5595;50.186;8.468;2023-03-15T01:13:35;1.60;99.90
11083;DHT22;5595;50.186;8.468;2023-03-15T01:16:02;1.50;99.90
11083;DHT22;5595;50.186;8.468;2023-03-15T01:18:29;1.70;99.90
11083;DHT22;5595;50.186;8.468;2023-03-15T01:20:56;1.40;99.90
11083;DHT22;5595;50.186;8.468;2023-03-15T01:23:23;1.40;99.90
11083;DHT22;5595;50.186;8.468;2023-03-15T01:25:51;1.60;99.90
11083;DHT22;5595;50.186;8.468;2023-03-15T01:28:18;1.30;99.90
11083;DHT22;5595;50.186;8.468;2023-03-15T01:30:48;1.30;99.90
11083;DHT22;5595;50.186;8.468;2023-03-15T01:33:15;1.40;99.90
11083;DHT22;5595;50.186;8.468;2023-03-15T01:35:42;1.20;99.90
11083;DHT22;5595;50.186;8.468;2023-03-15T01:38:09;1.20;99.90
11083;DHT22;5595;50.186;8.468;2023-03-15T01:40:40;1.10;99.90
11083;DHT22;5595;50.186;8.468;2023-03-15T01:43:15;1.10;99.90
11083;DHT22;5595;50.186;8.468;2023-03-15T01:45:56;1.10;99.90
11083;DHT22;5595;50.186;8.468;2023-03-15T01:48:28;1.00;99.90
11083;DHT22;5595;50.186;8.468;2023-03-15T01:50:58;1.00;99.90
11083;DHT22;5595;50.186;8.468;2023-03-15T01:53:26;1.30;99.90
11083;DHT22;5595;50.186;8.468;2023-03-15T01:55:56;1.00;99.90
11083;DHT22;5595;50.186;8.468;2023-03-15T01:58:26;1.10;99.90
11083;DHT22;5595;50.186;8.468;2023-03-15T02:00:53;0.90;99.90
11083;DHT22;5595;50.186;8.468;2023-03-15T02:03:22;0.90;99.90
11083;DHT22;5595;50.186;8.468;2023-03-15T02:05:55;1.30;99.90
11083;DHT22;5595;50.186;8.468;2023-03-15T02:08:26;1.00;99.90
11083;DHT22;5595;50.186;8.468;2023-03-15T02:10:56;0.90;99.90
11083;DHT22;5595;50.186;8.468;2023-03-15T02:13:27;1.00;99.90
11083;DHT22;5595;50.186;8.468;2023-03-15T02:15:55;1.00;99.90
11083;DHT22;5595;50.186;8.468;2023-03-15T02:18:23;1.10;99.90
11083;DHT22;5595;50.186;8.468;2023-03-15T02:20:55;1.10;99.90
11083;DHT22;5595;50.186;8.468;2023-03-15T02:23:25;1.10;99.90
11083;DHT22;5595;50.186;8.468;2023-03-15T02:25:57;1.10;99.90
11083;DHT22;5595;50.186;8.468;2023-03-15T02:28:29;1.00;99.90
11083;DHT22;5595;50.186;8.468;2023-03-15T02:30:56;1.00;99.90
11083;DHT22;5595;50.186;8.468;2023-03-15T02:33:26;0.90;99.90
11083;DHT22;5595;50.186;8.468;2023-03-15T02:35:53;0.90;99.90
11083;DHT22;5595;50.186;8.468;2023-03-15T02:38:20;0.80;99.90
11083;DHT22;5595;50.186;8.468;2023-03-15T02:40:48;0.90;99.90
11083;DHT22;5595;50.186;8.468;2023-03-15T02:43:20;0.80;99.90
11083;DHT22;5595;50.186;8.468;2023-03-15T02:45:51;0.90;99.90
11083;DHT22;5595;50.186;8.468;2023-03-15T02:48:18;0.90;99.90
11083;DHT22;5595;50.186;8.468;2023-03-15T02:50:45;0.90;99.90
11083;DHT22;5595;50.186;8.468;2023-03-15T02:53:12;0.90;99.90
11083;DHT22;5595;50.186;8.468;2023-03-15T02:55:39;0.90;99.90
11083;DHT22;5595;50.186;8.468;2023-03-15T02:58:06;0.90;99.90
11083;DHT22;5595;50.186;8.468;2023-03-15T03:00:33;0.90;99.90
11083;DHT22;5595;50.186;8.468;2023-03-15T03:03:01;0.90;99.90
11083;DHT22;5595;50.186;8.468;2023-03-15T03:05:28;1.10;99.90
11083;DHT22;5595;50.186;8.468;2023-03-15T03:07:55;1.10;99.90
11083;DHT22;5595;50.186;8.468;2023-03-15T03:10:23;0.90;99.90
11083;DHT22;5595;50.186;8.468;2023-03-15T03:12:50;1.10;99.90
11083;DHT22;5595;50.186;8.468;2023-03-15T03:15:18;0.70;99.90
11083;DHT22;5595;50.186;8.468;2023-03-15T03:17:45;0.90;99.90
11083;DHT22;5595;50.186;8.468;2023-03-15T03:20:14;1.00;99.90
11083;DHT22;5595;50.186;8.468;2023-03-15T03:22:41;0.90;99.90
11083;DHT22;5595;50.186;8.468;2023-03-15T03:25:10;0.80;99.90
11083;DHT22;5595;50.186;8.468;2023-03-15T03:27:38;1.00;99.90
11083;DHT22;5595;50.186;8.468;2023-03-15T03:30:07;0.80;99.90
11083;DHT22;5595;50.186;8.468;2023-03-15T03:32:34;0.80;99.90
11083;DHT22;5595;50.186;8.468;2023-03-15T03:35:02;0.90;99.90
11083;DHT22;5595;50.186;8.468;2023-03-15T03:37:30;0.80;99.90
11083;DHT22;5595;50.186;8.468;2023-03-15T03:39:57;1.00;99.90
11083;DHT22;5595;50.186;8.468;2023-03-15T03:42:24;1.00;99.90
11083;DHT22;5595;50.186;8.468;2023-03-15T03:44:51;1.10;99.90
11083;DHT22;5595;50.186;8.468;2023-03-15T03:47:19;1.00;99.90
11083;DHT22;5595;50.186;8.468;2023-03-15T03:49:46;1.00;99.90
11083;DHT22;5595;50.186;8.468;2023-03-15T03:52:13;0.90;99.90
11083;DHT22;5595;50.186;8.468;2023-03-15T03:54:41;1.00;99.90
11083;DHT22;5595;50.186;8.468;2023-03-15T03:57:09;1.10;99.90
11083;DHT22;5595;50.186;8.468;2023-03-15T03:59:36;0.90;99.90
11083;DHT22;5595;50.186;8.468;2023-03-15T04:02:04;1.00;99.90
11083;DHT22;5595;50.186;8.468;2023-03-15T04:04:31;1.00;99.90
11083;DHT22;5595;50.186;8.468;2023-03-15T04:06:58;1.00;99.90
11083;DHT22;5595;50.186;8.468;2023-03-15T04:09:24;1.00;99.90
11083;DHT22;5595;50.186;8.468;2023-03-15T04:11:53;1.00;99.90
11083;DHT22;5595;50.186;8.468;2023-03-15T04:14:19;1.00;99.90
11083;DHT22;5595;50.186;8.468;2023-03-15T04:16:46;1.00;99.90
11083;DHT22;5595;50.186;8.468;2023-03-15T04:19:13;1.00;99.90
11083;DHT22;5595;50.186;8.468;2023-03-15T04:21:40;1.10;99.90
11083;DHT22;5595;50.186;8.468;2023-03-15T04:24:12;1.20;99.90
11083;DHT22;5595;50.186;8.468;2023-03-15T04:26:39;1.20;99.90
11083;DHT22;5595;50.186;8.468;2023-03-15T04:29:09;1.20;99.90
11083;DHT22;5595;50.186;8.468;2023-03-15T04:31:36;1.20;99.90
11083;DHT22;5595;50.186;8.468;2023-03-15T04:34:04;1.30;99.90
11083;DHT22;5595;50.186;8.468;2023-03-15T04:36:31;1.30;99.90
11083;DHT22;5595;50.186;8.468;2023-03-15T04:38:57;1.30;99.90
11083;DHT22;5595;50.186;8.468;2023-03-15T04:41:29;1.30;99.90
11083;DHT22;5595;50.186;8.468;2023-03-15T04:43:56;1.30;99.90
11083;DHT22;5595;50.186;8.468;2023-03-15T04:46:24;1.30;99.90
11083;DHT22;5595;50.186;8.468;2023-03-15T04:48:51;1.20;99.90
11083;DHT22;5595;50.186;8.468;2023-03-15T04:51:17;1.40;99.90
11083;DHT22;5595;50.186;8.468;2023-03-15T04:53:44;1.60;99.90
11083;DHT22;5595;50.186;8.468;2023-03-15T04:56:11;1.50;99.90
11083;DHT22;5595;50.186;8.468;2023-03-15T04:58:38;1.50;99.90
11083;DHT22;5595;50.186;8.468;2023-03-15T05:01:05;1.60;99.90
11083;DHT22;5595;50.186;8.468;2023-03-15T05:03:33;1.60;99.90
11083;DHT22;5595;50.186;8.468;2023-03-15T05:06:00;1.80;99.90
11083;DHT22;5595;50.186;8.468;2023-03-15T05:08:32;1.80;99.90
11083;DHT22;5595;50.186;8.468;2023-03-15T05:10:59;1.80;99.90
11083;DHT22;5595;50.186;8.468;2023-03-15T05:13:26;1.80;99.90
11083;DHT22;5595;50.186;8.468;2023-03-15T05:15:53;1.90;99.90
11083;DHT22;5595;50.186;8.468;2023-03-15T05:18:20;1.90;99.90
11083;DHT22;5595;50.186;8.468;2023-03-15T05:41:33;2.40;99.90
11083;DHT22;5595;50.186;8.468;2023-03-15T05:44:03;4.10;99.90
11083;DHT22;5595;50.186;8.468;2023-03-15T05:46:30;2.50;99.90
11083;DHT22;5595;50.186;8.468;2023-03-15T05:49:02;2.60;99.90
11083;DHT22;5595;50.186;8.468;2023-03-15T05:51:34;3.30;99.90
11083;DHT22;5595;50.186;8.468;2023-03-15T05:54:04;2.90;99.90
11083;DHT22;5595;50.186;8.468;2023-03-15T05:56:32;4.10;99.90
11083;DHT22;5595;50.186;8.468;2023-03-15T05:59:04;2.50;99.90
11083;DHT22;5595;50.186;8.468;2023-03-15T06:04:06;2.40;99.90
11083;DHT22;5595;50.186;8.468;2023-03-15T06:06:36;3.70;99.90
11083;DHT22;5595;50.186;8.468;2023-03-15T06:09:08;1.90;99.90
11083;DHT22;5595;50.186;8.468;2023-03-15T06:14:22;2.30;99.90
11083;DHT22;5595;50.186;8.468;2023-03-15T06:16:54;3.60;99.90
11083;DHT22;5595;50.186;8.468;2023-03-15T06:19:44;3.50;99.90
11083;DHT22;5595;50.186;8.468;2023-03-15T06:22:14;3.30;99.90
11083;DHT22;5595;50.186;8.468;2023-03-15T06:25:18;3.50;99.90
11083;DHT22;5595;50.186;8.468;2023-03-15T06:30:38;2.40;99.90
11083;DHT22;5595;50.186;8.468;2023-03-15T06:33:11;4.00;99.90
11083;DHT22;5595;50.186;8.468;2023-03-15T06:35:41;3.60;99.90
11083;DHT22;5595;50.186;8.468;2023-03-15T06:38:08;1.70;99.90
11083;DHT22;5595;50.186;8.468;2023-03-15T06:40:40;2.40;99.90
11083;DHT22;5595;50.186;8.468;2023-03-15T06:43:15;2.50;99.90
11083;DHT22;5595;50.186;8.468;2023-03-15T06:45:53;1.80;99.90
11083;DHT22;5595;50.186;8.468;2023-03-15T06:48:56;2.10;99.90
11083;DHT22;5595;50.186;8.468;2023-03-15T06:57:10;2.50;99.90
11083;DHT22;5595;50.186;8.468;2023-03-15T06:59:46;2.50;99.90
11083;DHT22;5595;50.186;8.468;2023-03-15T07:10:09;2.60;99.90
11083;DHT22;5595;50.186;8.468;2023-03-15T07:12:56;1.00;99.90
11083;DHT22;5595;50.186;8.468;2023-03-15T07:15:38;2.70;99.90
11083;DHT22;5595;50.186;8.468;2023-03-15T07:18:15;1.30;99.90
11083;DHT22;5595;50.186;8.468;2023-03-15T07:20:56;2.30;99.90
11083;DHT22;5595;50.186;8.468;2023-03-15T07:23:32;2.80;99.90
11083;DHT22;5595;50.186;8.468;2023-03-15T07:26:09;3.50;99.90
11083;DHT22;5595;50.186;8.468;2023-03-15T07:31:32;2.20;99.90
11083;DHT22;5595;50.186;8.468;2023-03-15T07:34:37;3.20;99.90
11083;DHT22;5595;50.186;8.468;2023-03-15T07:40:41;5.10;99.90
11083;DHT22;5595;50.186;8.468;2023-03-15T07:56:06;3.40;99.90
11083;DHT22;5595;50.186;8.468;2023-03-15T07:58:46;3.60;99.90
11083;DHT22;5595;50.186;8.468;2023-03-15T08:01:20;5.00;99.90
11083;DHT22;5595;50.186;8.468;2023-03-15T08:03:51;3.70;99.90
11083;DHT22;5595;50.186;8.468;2023-03-15T08:06:18;4.00;99.90
11083;DHT22;5595;50.186;8.468;2023-03-15T08:08:54;3.70;99.90
11083;DHT22;5595;50.186;8.468;2023-03-15T08:34:47;3.40;99.90
11083;DHT22;5595;50.186;8.468;2023-03-15T08:37:29;2.70;99.90
11083;DHT22;5595;50.186;8.468;2023-03-15T08:39:58;3.80;99.90
11083;DHT22;5595;50.186;8.468;2023-03-15T08:45:11;4.30;99.90
11083;DHT22;5595;50.186;8.468;2023-03-15T08:47:44;4.60;99.90
11083;DHT22;5595;50.186;8.468;2023-03-15T08:50:26;4.80;99.90
11083;DHT22;5595;50.186;8.468;2023-03-15T08:53:11;4.10;99.90
11083;DHT22;5595;50.186;8.468;2023-03-15T08:55:40;4.50;99.90
11083;DHT22;5595;50.186;8.468;2023-03-15T08:58:13;4.70;99.90
11083;DHT22;5595;50.186;8.468;2023-03-15T09:16:54;5.70;99.90
11083;DHT22;5595;50.186;8.468;2023-03-15T09:19:21;5.50;99.90
11083;DHT22;5595;50.186;8.468;2023-03-15T09:21:47;5.30;99.90
11083;DHT22;5595;50.186;8.468;2023-03-15T09:24:14;5.30;99.90
11083;DHT22;5595;50.186;8.468;2023-03-15T09:26:41;5.70;99.90
11083;DHT22;5595;50.186;8.468;2023-03-15T09:29:08;6.00;99.90
11083;DHT22;5595;50.186;8.468;2023-03-15T09:31:35;5.60;99.90
11083;DHT22;5595;50.186;8.468;2023-03-15T09:34:03;6.10;99.90
11083;DHT22;5595;50.186;8.468;2023-03-15T09:36:32;6.50;99.90
11083;DHT22;5595;50.186;8.468;2023-03-15T09:38:59;6.70;99.90
11083;DHT22;5595;50.186;8.468;2023-03-15T09:41:39;6.80;99.90
11083;DHT22;5595;50.186;8.468;2023-03-15T09:44:19;6.70;99.90
11083;DHT22;5595;50.186;8.468;2023-03-15T09:46:58;6.90;99.90
11083;DHT22;5595;50.186;8.468;2023-03-15T09:49:44;7.20;99.90
11083;DHT22;5595;50.186;8.468;2023-03-15T09:52:25;7.20;99.90
11083;DHT22;5595;50.186;8.468;2023-03-15T09:54:55;7.20;99.90
11083;DHT22;5595;50.186;8.468;2023-03-15T09:57:29;7.00;99.90
11083;DHT22;5595;50.186;8.468;2023-03-15T09:59:58;6.90;99.90
11083;DHT22;5595;50.186;8.468;2023-03-15T10:02:28;6.80;99.90
11083;DHT22;5595;50.186;8.468;2023-03-15T10:05:03;6.80;99.90
11083;DHT22;5595;50.186;8.468;2023-03-15T10:07:32;6.80;99.90
11083;DHT22;5595;50.186;8.468;2023-03-15T10:10:00;6.90;99.90
11083;DHT22;5595;50.186;8.468;2023-03-15T10:12:33;6.70;99.90
11083;DHT22;5595;50.186;8.468;2023-03-15T10:15:19;6.90;99.90
11083;DHT22;5595;50.186;8.468;2023-03-15T10:18:03;7.20;99.90
11083;DHT22;5595;50.186;8.468;2023-03-15T10:20:38;6.90;99.90
11083;DHT22;5595;50.186;8.468;2023-03-15T10:23:13;6.60;99.90
11083;DHT22;5595;50.186;8.468;2023-03-15T10:25:42;6.40;99.90
11083;DHT22;5595;50.186;8.468;2023-03-15T10:28:12;6.50;99.90
11083;DHT22;5595;50.186;8.468;2023-03-15T10:30:46;6.50;99.90
11083;DHT22;5595;50.186;8.468;2023-03-15T10:33:15;6.70;99.90
11083;DHT22;5595;50.186;8.468;2023-03-15T10:35:47;7.00;99.90
11083;DHT22;5595;50.186;8.468;2023-03-15T10:38:16;6.90;99.90
11083;DHT22;5595;50.186;8.468;2023-03-15T10:40:44;6.90;99.90
11083;DHT22;5595;50.186;8.468;2023-03-15T10:43:16;7.30;99.90
11083;DHT22;5595;50.186;8.468;2023-03-15T10:45:47;7.20;99.90
11083;DHT22;5595;50.186;8.468;2023-03-15T10:48:24;6.90;99.90
11083;DHT22;5595;50.186;8.468;2023-03-15T10:50:53;7.00;99.90
11083;DHT22;5595;50.186;8.468;2023-03-15T10:53:21;7.20;99.90
11083;DHT22;5595;50.186;8.468;2023-03-15T10:55:58;7.00;99.90
11083;DHT22;5595;50.186;8.468;2023-03-15T10:58:27;7.40;99.90
11083;DHT22;5595;50.186;8.468;2023-03-15T11:00:59;7.20;99.90
11083;DHT22;5595;50.186;8.468;2023-03-15T11:03:27;7.40;99.90
11083;DHT22;5595;50.186;8.468;2023-03-15T11:05:57;7.40;99.90
11083;DHT22;5595;50.186;8.468;2023-03-15T11:08:35;7.50;99.90
11083;DHT22;5595;50.186;8.468;2023-03-15T11:11:04;8.00;99.90
11083;DHT22;5595;50.186;8.468;2023-03-15T11:13:33;8.30;99.90
11083;DHT22;5595;50.186;8.468;2023-03-15T11:16:02;8.50;99.90
11083;DHT22;5595;50.186;8.468;2023-03-15T11:18:34;8.60;99.90
11083;DHT22;5595;50.186;8.468;2023-03-15T11:21:06;8.10;99.90
11083;DHT22;5595;50.186;8.468;2023-03-15T11:23:37;8.20;99.90
11083;DHT22;5595;50.186;8.468;2023-03-15T11:26:05;7.50;99.90
11083;DHT22;5595;50.186;8.468;2023-03-15T11:28:35;7.10;99.90
11083;DHT22;5595;50.186;8.468;2023-03-15T11:31:03;6.90;99.90
11083;DHT22;5595;50.186;8.468;2023-03-15T11:33:44;6.60;99.90
11083;DHT22;5595;50.186;8.468;2023-03-15T11:36:18;6.30;99.90
11083;DHT22;5595;50.186;8.468;2023-03-15T11:38:45;6.20;99.90
11083;DHT22;5595;50.186;8.468;2023-03-15T11:41:24;6.30;99.90
11083;DHT22;5595;50.186;8.468;2023-03-15T11:44:03;6.30;99.90
11083;DHT22;5595;50.186;8.468;2023-03-15T11:46:38;6.50;99.90
11083;DHT22;5595;50.186;8.468;2023-03-15T11:49:13;7.00;99.90
11083;DHT22;5595;50.186;8.468;2023-03-15T11:51:42;7.20;99.90
11083;DHT22;5595;50.186;8.468;2023-03-15T11:54:12;7.30;99.90
11083;DHT22;5595;50.186;8.468;2023-03-15T11:56:52;7.50;99.90
11083;DHT22;5595;50.186;8.468;2023-03-15T11:59:24;7.40;99.90
11083;DHT22;5595;50.186;8.468;2023-03-15T12:01:55;7.20;99.90
11083;DHT22;5595;50.186;8.468;2023-03-15T12:04:39;7.00;99.90
11083;DHT22;5595;50.186;8.468;2023-03-15T12:10:44;7.30;99.90
11083;DHT22;5595;50.186;8.468;2023-03-15T12:13:21;7.60;99.90
11083;DHT22;5595;50.186;8.468;2023-03-15T12:15:50;7.70;99.90
11083;DHT22;5595;50.186;8.468;2023-03-15T12:18:37;8.10;99.90
11083;DHT22;5595;50.186;8.468;2023-03-15T12:21:13;8.10;99.90
11083;DHT22;5595;50.186;8.468;2023-03-15T12:23:48;7.80;99.90
11083;DHT22;5595;50.186;8.468;2023-03-15T12:26:31;7.80;99.90
11083;DHT22;5595;50.186;8.468;2023-03-15T12:29:05;7.70;99.90
11083;DHT22;5595;50.186;8.468;2023-03-15T12:31:55;7.70;99.90
11083;DHT22;5595;50.186;8.468;2023-03-15T12:34:26;7.80;99.90
11083;DHT22;5595;50.186;8.468;2023-03-15T12:36:56;7.90;99.90
11083;DHT22;5595;50.186;8.468;2023-03-15T12:39:39;8.00;99.90
11083;DHT22;5595;50.186;8.468;2023-03-15T12:45:35;7.90;99.90
11083;DHT22;5595;50.186;8.468;2023-03-15T12:48:29;7.50;99.90
11083;DHT22;5595;50.186;8.468;2023-03-15T12:51:02;7.20;99.90
11083;DHT22;5595;50.186;8.468;2023-03-15T12:53:49;7.00;99.90
11083;DHT22;5595;50.186;8.468;2023-03-15T12:56:45;7.00;99.90
11083;DHT22;5595;50.186;8.468;2023-03-15T12:59:39;7.20;99.90
11083;DHT22;5595;50.186;8.468;2023-03-15T13:02:28;7.10;99.90
11083;DHT22;5595;50.186;8.468;2023-03-15T13:05:17;7.20;99.90
11083;DHT22;5595;50.186;8.468;2023-03-15T13:07:52;7.30;99.90
11083;DHT22;5595;50.186;8.468;2023-03-15T13:10:29;7.50;99.90
11083;DHT22;5595;50.186;8.468;2023-03-15T13:13:03;7.40;99.90
11083;DHT22;5595;50.186;8.468;2023-03-15T13:15:36;7.30;99.90
11083;DHT22;5595;50.186;8.468;2023-03-15T13:18:12;7.30;99.90
11083;DHT22;5595;50.186;8.468;2023-03-15T13:20:50;7.30;99.90
11083;DHT22;5595;50.186;8.468;2023-03-15T13:23:21;7.40;99.90
11083;DHT22;5595;50.186;8.468;2023-03-15T13:26:02;7.50;99.90
11083;DHT22;5595;50.186;8.468;2023-03-15T13:28:36;7.50;99.90
11083;DHT22;5595;50.186;8.468;2023-03-15T13:31:12;7.40;99.90
11083;DHT22;5595;50.186;8.468;2023-03-15T13:33:46;7.30;99.90
11083;DHT22;5595;50.186;8.468;2023-03-15T13:36:15;7.30;99.90
11083;DHT22;5595;50.186;8.468;2023-03-15T13:38:43;7.40;99.90
11083;DHT22;5595;50.186;8.468;2023-03-15T13:41:19;7.60;99.90
11083;DHT22;5595;50.186;8.468;2023-03-15T13:43:48;7.70;99.90
11083;DHT22;5595;50.186;8.468;2023-03-15T13:46:18;7.90;99.90
11083;DHT22;5595;50.186;8.468;2023-03-15T13:48:47;7.90;99.90
11083;DHT22;5595;50.186;8.468;2023-03-15T13:51:19;7.60;99.90
11083;DHT22;5595;50.186;8.468;2023-03-15T13:53:49;7.20;99.90
11083;DHT22;5595;50.186;8.468;2023-03-15T13:56:20;7.00;99.90
11083;DHT22;5595;50.186;8.468;2023-03-15T13:58:55;6.90;99.90
11083;DHT22;5595;50.186;8.468;2023-03-15T14:01:23;6.80;99.90
11083;DHT22;5595;50.186;8.468;2023-03-15T14:03:55;6.80;99.90
11083;DHT22;5595;50.186;8.468;2023-03-15T14:06:24;6.60;99.90
11083;DHT22;5595;50.186;8.468;2023-03-15T14:08:52;6.70;99.90
11083;DHT22;5595;50.186;8.468;2023-03-15T14:11:32;6.30;99.90
11083;DHT22;5595;50.186;8.468;2023-03-15T14:14:17;6.40;99.90
11083;DHT22;5595;50.186;8.468;2023-03-15T14:16:46;6.40;99.90
11083;DHT22;5595;50.186;8.468;2023-03-15T14:19:16;6.40;99.90
11083;DHT22;5595;50.186;8.468;2023-03-15T14:21:44;6.60;99.90
11083;DHT22;5595;50.186;8.468;2023-03-15T14:24:15;6.50;99.90
11083;DHT22;5595;50.186;8.468;2023-03-15T14:26:43;6.60;99.90
11083;DHT22;5595;50.186;8.468;2023-03-15T14:29:19;6.60;99.90
11083;DHT22;5595;50.186;8.468;2023-03-15T14:31:49;6.50;99.90
11083;DHT22;5595;50.186;8.468;2023-03-15T14:34:22;6.40;99.90
11083;DHT22;5595;50.186;8.468;2023-03-15T14:36:51;6.20;99.90
11083;DHT22;5595;50.186;8.468;2023-03-15T14:39:25;6.20;99.90
11083;DHT22;5595;50.186;8.468;2023-03-15T14:41:53;6.30;99.90
11083;DHT22;5595;50.186;8.468;2023-03-15T14:44:22;6.30;99.90
11083;DHT22;5595;50.186;8.468;2023-03-15T14:46:49;6.30;99.90
11083;DHT22;5595;50.186;8.468;2023-03-15T14:49:20;6.30;99.90
11083;DHT22;5595;50.186;8.468;2023-03-15T14:51:52;6.40;99.90
11083;DHT22;5595;50.186;8.468;2023-03-15T14:54:19;6.50;99.90
11083;DHT22;5595;50.186;8.468;2023-03-15T14:56:47;6.40;99.90
11083;DHT22;5595;50.186;8.468;2023-03-15T14:59:14;6.50;99.90
11083;DHT22;5595;50.186;8.468;2023-03-15T15:01:47;6.30;99.90
11083;DHT22;5595;50.186;8.468;2023-03-15T15:04:15;6.30;99.90
11083;DHT22;5595;50.186;8.468;2023-03-15T15:06:43;6.30;99.90
11083;DHT22;5595;50.186;8.468;2023-03-15T15:09:17;6.20;99.90
11083;DHT22;5595;50.186;8.468;2023-03-15T15:11:44;6.20;99.90
11083;DHT22;5595;50.186;8.468;2023-03-15T15:14:12;6.10;99.90
11083;DHT22;5595;50.186;8.468;2023-03-15T15:16:39;6.10;99.90
11083;DHT22;5595;50.186;8.468;2023-03-15T15:19:08;6.10;99.90
11083;DHT22;5595;50.186;8.468;2023-03-15T15:21:35;6.10;99.90
11083;DHT22;5595;50.186;8.468;2023-03-15T15:24:04;6.00;99.90
11083;DHT22;5595;50.186;8.468;2023-03-15T15:26:32;5.90;99.90
11083;DHT22;5595;50.186;8.468;2023-03-15T15:28:59;5.90;99.90
11083;DHT22;5595;50.186;8.468;2023-03-15T15:31:27;6.00;99.90
11083;DHT22;5595;50.186;8.468;2023-03-15T15:33:58;5.90;99.90
11083;DHT22;5595;50.186;8.468;2023-03-15T15:36:29;5.90;99.90
11083;DHT22;5595;50.186;8.468;2023-03-15T15:38:56;5.80;99.90
11083;DHT22;5595;50.186;8.468;2023-03-15T15:41:27;5.90;99.90
11083;DHT22;5595;50.186;8.468;2023-03-15T15:43:55;5.90;99.90
11083;DHT22;5595;50.186;8.468;2023-03-15T15:46:22;5.80;99.90
11083;DHT22;5595;50.186;8.468;2023-03-15T15:48:49;5.80;99.90
11083;DHT22;5595;50.186;8.468;2023-03-15T15:51:27;5.70;99.90
11083;DHT22;5595;50.186;8.468;2023-03-15T15:53:57;5.60;99.90
11083;DHT22;5595;50.186;8.468;2023-03-15T15:56:29;5.60;99.90
11083;DHT22;5595;50.186;8.468;2023-03-15T15:58:57;5.60;99.90
11083;DHT22;5595;50.186;8.468;2023-03-15T16:01:25;5.60;99.90
11083;DHT22;5595;50.186;8.468;2023-03-15T16:03:52;5.50;99.90
11083;DHT22;5595;50.186;8.468;2023-03-15T16:06:20;5.60;99.90
11083;DHT22;5595;50.186;8.468;2023-03-15T16:08:50;5.70;99.90
11083;DHT22;5595;50.186;8.468;2023-03-15T16:11:18;5.50;99.90
11083;DHT22;5595;50.186;8.468;2023-03-15T16:13:46;5.30;99.90
11083;DHT22;5595;50.186;8.468;2023-03-15T16:16:15;5.10;99.90
11083;DHT22;5595;50.186;8.468;2023-03-15T16:18:43;5.30;99.90
11083;DHT22;5595;50.186;8.468;2023-03-15T16:21:16;5.30;99.90
11083;DHT22;5595;50.186;8.468;2023-03-15T16:23:44;5.20;99.90
11083;DHT22;5595;50.186;8.468;2023-03-15T16:26:15;5.30;99.90
11083;DHT22;5595;50.186;8.468;2023-03-15T16:28:43;5.30;99.90
11083;DHT22;5595;50.186;8.468;2023-03-15T16:31:11;5.20;99.90
11083;DHT22;5595;50.186;8.468;2023-03-15T16:33:38;5.20;99.90
11083;DHT22;5595;50.186;8.468;2023-03-15T16:36:14;5.40;99.90
11083;DHT22;5595;50.186;8.468;2023-03-15T16:38:41;5.10;99.90
11083;DHT22;5595;50.186;8.468;2023-03-15T16:41:10;5.00;99.90
11083;DHT22;5595;50.186;8.468;2023-03-15T16:43:39;4.90;99.90
11083;DHT22;5595;50.186;8.468;2023-03-15T16:46:11;4.90;99.90
11083;DHT22;5595;50.186;8.468;2023-03-15T16:48:39;4.90;99.90
11083;DHT22;5595;50.186;8.468;2023-03-15T16:51:06;4.90;99.90
11083;DHT22;5595;50.186;8.468;2023-03-15T16:53:33;4.80;99.90
11083;DHT22;5595;50.186;8.468;2023-03-15T16:56:02;4.80;99.90
11083;DHT22;5595;50.186;8.468;2023-03-15T16:58:29;4.80;99.90
11083;DHT22;5595;50.186;8.468;2023-03-15T17:00:57;4.80;99.90
11083;DHT22;5595;50.186;8.468;2023-03-15T17:03:24;4.70;99.90
11083;DHT22;5595;50.186;8.468;2023-03-15T17:05:53;4.60;99.90
11083;DHT22;5595;50.186;8.468;2023-03-15T17:08:22;4.60;99.90
11083;DHT22;5595;50.186;8.468;2023-03-15T17:10:49;4.50;99.90
11083;DHT22;5595;50.186;8.468;2023-03-15T17:13:22;4.50;99.90
11083;DHT22;5595;50.186;8.468;2023-03-15T17:15:50;4.40;99.90
11083;DHT22;5595;50.186;8.468;2023-03-15T17:18:19;4.30;99.90
11083;DHT22;5595;50.186;8.468;2023-03-15T17:20:48;4.10;99.90
11083;DHT22;5595;50.186;8.468;2023-03-15T17:23:15;4.10;99.90
11083;DHT22;5595;50.186;8.468;2023-03-15T17:25:45;4.00;99.90
11083;DHT22;5595;50.186;8.468;2023-03-15T17:28:12;4.00;99.90
11083;DHT22;5595;50.186;8.468;2023-03-15T17:30:39;3.80;99.90
11083;DHT22;5595;50.186;8.468;2023-03-15T17:33:06;3.80;99.90
11083;DHT22;5595;50.186;8.468;2023-03-15T17:35:37;3.50;99.90
11083;DHT22;5595;50.186;8.468;2023-03-15T17:38:09;3.30;99.90
11083;DHT22;5595;50.186;8.468;2023-03-15T17:40:38;3.20;99.90
11083;DHT22;5595;50.186;8.468;2023-03-15T17:43:05;3.30;99.90
11083;DHT22;5595;50.186;8.468;2023-03-15T17:45:33;3.10;99.90
11083;DHT22;5595;50.186;8.468;2023-03-15T17:48:00;3.00;99.90
11083;DHT22;5595;50.186;8.468;2023-03-15T17:50:28;2.90;99.90
11083;DHT22;5595;50.186;8.468;2023-03-15T17:52:59;2.80;99.90
11083;DHT22;5595;50.186;8.468;2023-03-15T17:55:28;2.80;99.90
11083;DHT22;5595;50.186;8.468;2023-03-15T17:57:56;2.70;99.90
11083;DHT22;5595;50.186;8.468;2023-03-15T18:00:23;2.60;99.90
11083;DHT22;5595;50.186;8.468;2023-03-15T18:02:51;2.50;99.90
11083;DHT22;5595;50.186;8.468;2023-03-15T18:05:20;2.30;99.90
11083;DHT22;5595;50.186;8.468;2023-03-15T18:07:47;2.30;99.90
11083;DHT22;5595;50.186;8.468;2023-03-15T18:10:17;2.20;99.90
11083;DHT22;5595;50.186;8.468;2023-03-15T18:12:47;2.20;99.90
11083;DHT22;5595;50.186;8.468;2023-03-15T18:15:16;2.10;99.90
11083;DHT22;5595;50.186;8.468;2023-03-15T18:17:43;2.10;99.90